Latest Weather Observations for Forrest

IDW60801

Issued at 12:35 pm WST Wednesday 22 October 2014 (issued every 30 minutes, with the page automatically refreshed every 10 minutes)

About weather observations | Map of weather stations | Latest weather observations for WA | Other Formats
Station Details ID: 011052 Name: FORREST Lat: -30.85 Lon: 128.11 Height: 159.0 m
Data from the previous 72 hours. | See also: Recent months at Forrest
Date/Time
WST
Temp
°C
App
Temp
°C
Dew
Point
Rel
Hum
%
Delta-T
°C
Wind Press
QNH
hPa
Press
MSL
hPa
Rain
since 9 am
mm
Dir
 
Spd
km/h
Gust
km/h
Spd
kts
Gust
kts
22/12:30pm 27.1 25.4 11.2 37 9.1 E 11 26 6 14 1021.0 - 0.0
22/12:00pm 26.0 23.6 11.4 40 8.3 E 15 28 8 15 1021.3 1021.0 0.0
22/11:30am 25.2 21.8 11.4 42 7.9 ESE 20 28 11 15 1021.7 - 0.0
22/11:00am 25.2 23.1 12.4 45 7.4 E 15 26 8 14 1022.2 - 0.0
22/10:30am 23.5 21.1 12.8 51 6.2 ESE 17 26 9 14 1022.7 - 0.0
22/10:00am 21.9 20.3 12.7 56 5.3 ESE 13 24 7 13 1023.2 - 0.0
22/09:30am 21.2 18.9 13.1 60 4.7 ESE 17 28 9 15 1023.4 - 0.0
22/09:00am 20.4 18.2 13.4 64 4.0 ESE 17 28 9 15 1023.6 1023.4 0.0
22/08:30am 19.4 16.6 13.1 67 3.6 E 20 30 11 16 1023.7 - 0.0
22/08:00am 18.7 15.9 13.3 71 3.1 ESE 20 28 11 15 1023.8 - 0.0
22/07:30am 18.6 15.9 13.5 72 2.9 ESE 20 28 11 15 1023.9 - 0.0
22/07:00am 16.5 13.3 13.0 80 2.0 ESE 22 30 12 16 1023.8 - 0.0
22/06:30am 16.4 13.3 13.3 82 1.7 SE 22 28 12 15 1023.5 - 0.0
22/06:00am 15.2 12.7 13.6 90 0.9 SE 19 24 10 13 1023.5 1023.3 0.0
22/05:30am 14.7 12.6 13.6 93 0.6 SE 17 22 9 12 1023.3 - 0.0
22/05:00am 14.5 13.2 13.7 95 0.5 SSE 13 20 7 11 1022.9 - 0.0
22/04:30am 14.1 12.3 13.3 95 0.4 SE 15 19 8 10 1022.6 - 0.0
22/04:00am 14.1 13.1 13.3 95 0.4 SSE 11 17 6 9 1022.3 - 0.0
22/03:30am 14.0 12.6 13.4 96 0.3 SSE 13 19 7 10 1022.1 - 0.0
22/03:00am 14.0 12.3 13.5 97 0.3 SSE 15 19 8 10 1021.9 1021.7 0.0
22/02:30am 13.8 12.8 13.3 97 0.3 SSE 11 17 6 9 1021.9 - 0.0
22/02:00am 13.4 12.6 12.9 97 0.3 S 9 13 5 7 1021.9 - 0.0
22/01:30am 13.5 12.0 13.0 97 0.3 S 13 17 7 9 1022.0 - 0.0
22/01:00am 13.4 11.7 12.3 93 0.6 SSW 13 15 7 8 1022.0 - 0.0
22/12:30am 13.8 12.5 12.4 91 0.8 SSW 11 13 6 7 1022.0 - 0.0
22/12:00am 14.3 13.0 12.5 89 1.0 S 11 13 6 7 1021.9 1021.7 0.0
 
Date/Time
WST
Temp
°C
App
Temp
°C
Dew
Point
Rel
Hum
%
Delta-T
°C
Wind Press
QNH
hPa
Press
MSL
hPa
Rain
since 9 am
mm
Dir
 
Spd
km/h
Gust
km/h
Spd
kts
Gust
kts
21/11:30pm 14.8 13.6 12.8 88 1.1 S 11 15 6 8 1022.2 - 0.0
21/11:00pm 15.4 13.9 13.1 86 1.3 SSE 13 17 7 9 1022.3 - 0.0
21/10:30pm 15.8 14.2 12.9 83 1.6 SSE 13 17 7 9 1022.6 - 0.0
21/10:00pm 16.2 14.2 12.7 80 1.9 SSE 15 20 8 11 1022.8 - 0.0
21/09:30pm 16.7 14.7 12.7 77 2.2 SSE 15 19 8 10 1023.0 - 0.0
21/09:00pm 17.3 14.4 12.2 72 2.8 SSE 19 28 10 15 1023.1 1022.9 0.0
21/08:30pm 17.9 14.2 12.8 72 2.9 SSE 24 32 13 17 1023.0 - 0.0
21/08:00pm 18.7 15.4 12.7 68 3.4 SSE 22 30 12 16 1022.7 - 0.0
21/07:30pm 19.5 15.9 12.0 62 4.2 SE 22 33 12 18 1022.4 - 0.0
21/07:00pm 20.2 17.0 11.9 59 4.7 SE 20 32 11 17 1022.0 - 0.0
21/06:30pm 21.1 16.3 11.7 55 5.3 SSE 28 39 15 21 1021.3 - 0.0
21/06:00pm 22.3 17.1 11.7 51 6.0 SE 30 41 16 22 1020.7 1020.4 0.0
21/05:30pm 24.1 18.4 11.1 44 7.3 SE 32 43 17 23 1020.1 - 0.0
21/05:00pm 25.9 20.1 10.9 39 8.5 SE 32 43 17 23 1019.2 - 0.0
21/04:30pm 27.0 19.7 10.2 35 9.5 SE 39 50 21 27 1018.7 - 0.0
21/04:09pm 29.6 22.8 9.2 28 11.4 SE 35 56 19 30 1018.5 - 0.0
21/04:00pm 30.5 27.0 7.0 23 12.8 SSW 15 30 8 16 1018.1 - 0.0
21/03:30pm 30.7 26.8 7.2 23 12.8 SW 17 28 9 15 1018.0 - 0.0
21/03:00pm 30.7 26.3 6.6 22 13.0 SW 19 30 10 16 1017.9 1017.7 0.0
21/02:30pm 30.9 26.0 6.7 22 13.1 SW 22 35 12 19 1017.8 - 0.0
21/02:00pm 31.3 26.7 6.4 21 13.4 SSW 20 32 11 17 1017.8 - 0.0
21/01:30pm 30.4 26.1 7.0 23 12.7 SSW 19 30 10 16 1017.8 - 0.0
21/01:00pm 30.9 26.3 6.7 22 13.1 SSW 20 35 11 19 1017.9 - 0.0
21/12:30pm 30.5 26.1 6.4 22 13.0 SW 19 28 10 15 1018.1 - 0.0
21/12:00pm 30.1 26.4 4.7 20 13.2 W 13 20 7 11 1018.5 1018.2 0.0
21/11:30am 30.4 26.5 7.0 23 12.7 W 17 32 9 17 1018.7 - 0.0
21/11:00am 29.5 25.1 7.4 25 12.0 SSW 20 28 11 15 1018.8 - 0.0
21/10:30am 28.7 24.4 7.9 27 11.4 SW 20 35 11 19 1019.2 - 0.0
21/10:00am 28.7 25.1 9.9 31 10.6 S 19 32 10 17 1019.2 - 0.0
21/09:30am 28.2 24.6 9.9 32 10.3 S 19 28 10 15 1019.3 - 0.0
21/09:00am 27.7 24.8 10.9 35 9.6 SSW 17 22 9 12 1019.2 1018.9 0.2
21/08:30am 27.0 23.3 9.4 33 9.8 S 19 26 10 14 1019.1 - 0.2
21/08:00am 26.2 23.1 10.4 37 8.9 S 17 22 9 12 1018.9 - 0.2
21/07:30am 24.7 22.4 11.6 44 7.5 SSE 15 22 8 12 1018.7 - 0.2
21/07:00am 22.5 21.4 13.0 55 5.5 SSE 11 15 6 8 1018.6 - 0.2
21/06:30am 20.3 19.8 13.7 66 3.8 SSE 9 13 5 7 1018.3 - 0.2
21/06:00am 17.1 16.2 13.8 81 1.9 E 11 13 6 7 1017.5 1017.3 0.2
21/05:30am 14.8 14.1 12.1 84 1.5 ESE 7 9 4 5 1017.7 - 0.2
21/05:00am 13.2 12.3 11.3 88 1.0 SSE 7 9 4 5 1017.5 - 0.2
21/04:30am 13.8 12.3 12.0 89 1.0 SSW 11 11 6 6 1017.3 - 0.2
21/04:00am 13.8 12.3 11.8 88 1.1 SW 11 13 6 7 1017.0 - 0.2
21/03:30am 14.1 12.5 11.6 85 1.3 S 11 15 6 8 1016.6 - 0.2
21/03:00am 14.5 12.6 11.8 84 1.5 S 13 15 7 8 1016.2 1015.9 0.2
21/02:30am 15.2 13.6 11.6 79 2.0 SSE 11 15 6 8 1016.2 - 0.2
21/02:00am 16.7 13.7 11.8 73 2.7 S 19 22 10 12 1015.6 - 0.2
21/01:30am 16.8 13.6 11.1 69 3.1 SW 19 20 10 11 1015.4 - 0.2
21/01:00am 16.7 13.2 10.3 66 3.4 SW 19 20 10 11 1015.4 - 0.2
21/12:30am 17.1 13.7 9.3 60 4.1 SW 17 20 9 11 1015.4 - 0.2
21/12:00am 18.2 14.6 8.5 53 5.0 SW 17 20 9 11 1015.4 1015.1 0.2
 
Date/Time
WST
Temp
°C
App
Temp
°C
Dew
Point
Rel
Hum
%
Delta-T
°C
Wind Press
QNH
hPa
Press
MSL
hPa
Rain
since 9 am
mm
Dir
 
Spd
km/h
Gust
km/h
Spd
kts
Gust
kts
20/11:30pm 19.1 15.5 8.4 50 5.6 WSW 17 20 9 11 1015.3 - 0.2
20/11:00pm 20.1 17.8 10.5 54 5.2 SSW 13 17 7 9 1015.3 - 0.2
20/10:30pm 20.3 19.8 12.0 59 4.7 S 6 7 3 4 1015.3 - 0.2
20/10:00pm 20.8 19.9 11.4 55 5.2 S 7 9 4 5 1015.6 - 0.2
20/09:30pm 21.3 20.4 12.7 58 4.9 ESE 9 9 5 5 1015.9 - 0.2
20/09:00pm 23.4 21.7 9.8 42 7.5 S 9 11 5 6 1016.0 1015.7 0.2
20/08:30pm 24.3 22.7 10.2 41 7.8 S 9 11 5 6 1015.9 - 0.2
20/08:00pm 23.7 22.3 9.7 41 7.7 SE 7 11 4 6 1015.8 - 0.2
20/07:30pm 23.2 23.1 10.9 46 6.9 WSW 2 7 1 4 1015.6 - 0.2
20/07:00pm 25.8 22.8 7.9 32 9.6 WSW 13 17 7 9 1015.0 - 0.2
20/06:30pm 27.0 23.3 8.0 30 10.3 WSW 17 20 9 11 1014.4 - 0.2
20/06:00pm 27.8 25.0 8.6 30 10.6 W 13 13 7 7 1013.7 1013.4 0.2
20/05:30pm 29.7 26.2 8.7 27 11.7 W 17 24 9 13 1013.3 - 0.2
20/05:00pm 30.5 25.9 8.3 25 12.3 W 22 30 12 16 1013.0 - 0.2
20/04:30pm 32.1 27.4 7.7 22 13.5 WNW 22 32 12 17 1012.6 - 0.2
20/04:00pm 32.0 27.8 7.6 22 13.5 NNW 19 26 10 14 1012.6 - 0.2
20/03:30pm 32.0 27.8 8.3 23 13.2 NW 20 28 11 15 1012.5 - 0.2
20/03:00pm 31.7 27.0 9.3 25 12.7 N 24 33 13 18 1012.6 1012.3 0.2
20/02:30pm 32.2 27.5 9.1 24 13.1 N 24 33 13 18 1012.6 - 0.2
20/02:00pm 32.6 27.6 9.4 24 13.2 N 26 37 14 20 1012.8 - 0.2
20/01:30pm 31.6 27.6 9.2 25 12.7 N 20 28 11 15 1013.1 - 0.2
20/01:00pm 31.3 27.6 9.5 26 12.4 N 19 32 10 17 1013.5 - 0.2
20/12:30pm 30.5 27.6 11.0 30 11.3 N 17 26 9 14 1014.2 - 0.2
20/12:00pm 28.2 26.0 14.4 42 8.4 N 19 24 10 13 1014.3 1014.0 0.2
20/11:30am 27.3 28.2 16.6 52 6.7 NNW 7 15 4 8 1014.8 - 0.2
20/11:00am 24.6 26.0 16.3 60 5.1 WNW 4 9 2 5 1014.9 - 0.2
20/10:30am 22.5 23.7 17.4 73 3.2 ENE 7 11 4 6 1015.8 - 0.2
20/10:00am 20.0 19.2 17.0 83 1.8 ENE 17 20 9 11 1016.2 - 0.2
20/09:30am 18.3 15.0 16.1 87 1.3 NE 28 37 15 20 1017.0 - 0.2
20/09:00am 18.2 15.8 16.4 89 1.1 NNE 24 35 13 19 1017.9 1017.7 1.0
20/08:35am 17.2 10.8 15.5 90 1.0 NE 43 52 23 28 1018.1 - 1.0
20/08:30am 17.4 11.4 15.4 88 1.2 N 41 59 22 32 1019.7 - 0.6
20/08:16am 19.9 15.3 13.6 67 3.6 NNE 30 48 16 26 1018.5 - 0.0
20/08:00am 20.6 17.9 13.6 64 4.1 NE 20 28 11 15 1015.9 - 0.0
20/07:30am 19.9 18.6 13.8 68 3.5 SSE 13 20 7 11 1016.0 - 0.0
20/07:00am 17.7 16.8 13.8 78 2.2 S 11 19 6 10 1014.8 - 0.0
20/06:30am 17.5 16.2 13.8 79 2.1 SE 13 17 7 9 1015.0 - 0.0
20/06:00am 16.9 14.4 13.6 81 1.9 SE 19 33 10 18 1014.0 1013.7 0.0
20/05:30am 16.7 14.2 13.4 81 1.9 SSE 19 24 10 13 1014.4 - 0.0
20/05:00am 16.1 12.7 13.8 86 1.3 S 24 32 13 17 1015.3 - 0.0
20/04:30am 15.3 16.3 13.3 88 1.1 CALM 0 0 0 0 1017.1 - 0.0
20/04:00am 15.4 14.8 13.4 88 1.1 N 9 15 5 8 1017.6 - 0.0
20/03:30am 15.4 14.0 13.4 88 1.1 SSW 13 20 7 11 1016.6 - 0.0
20/03:00am 15.3 13.9 13.3 88 1.1 S 13 17 7 9 1015.4 1015.1 0.0
20/02:30am 15.6 13.1 13.4 87 1.2 S 19 24 10 13 1014.3 - 0.0
20/02:00am 16.1 13.6 13.4 84 1.5 SSW 19 28 10 15 1015.6 - 0.0
20/01:30am 16.8 12.8 13.1 79 2.1 SSW 26 33 14 18 1015.2 - 0.0
20/01:00am 16.8 11.5 13.1 79 2.1 SSW 33 41 18 22 1014.8 - 0.0
20/12:37am 16.7 10.4 13.4 81 1.9 SW 39 50 21 27 1016.0 - 0.0
20/12:30am 16.7 10.0 13.4 81 1.9 WSW 41 52 22 28 1016.7 - 0.0
20/12:02am 16.9 11.9 13.4 80 2.0 WSW 32 52 17 28 1016.7 - 0.0
20/12:00am 16.8 12.2 13.5 81 1.9 SW 30 43 16 23 1016.7 1016.5 0.0
 
Date/Time
WST
Temp
°C
App
Temp
°C
Dew
Point
Rel
Hum
%
Delta-T
°C
Wind Press
QNH
hPa
Press
MSL
hPa
Rain
since 9 am
mm
Dir
 
Spd
km/h
Gust
km/h
Spd
kts
Gust
kts
19/11:30pm 16.2 12.1 13.7 85 1.4 WSW 28 35 15 19 1016.3 - 0.0
19/11:00pm 16.3 13.8 13.6 84 1.5 S 19 24 10 13 1015.2 - 0.0
19/10:30pm 16.3 14.1 13.4 83 1.6 S 17 20 9 11 1015.0 - 0.0
19/10:00pm 16.5 14.3 13.4 82 1.8 S 17 22 9 12 1014.9 - 0.0
19/09:30pm 16.8 14.2 13.1 79 2.1 S 19 22 10 12 1015.0 - 0.0
19/09:00pm 17.1 14.4 13.0 77 2.3 SSE 19 28 10 15 1014.8 1014.5 0.0
19/08:30pm 17.4 15.1 13.1 76 2.4 SE 17 20 9 11 1015.1 - 0.0
19/08:00pm 17.6 15.0 13.3 76 2.4 SSE 19 28 10 15 1015.0 - 0.0
19/07:30pm 17.8 13.5 13.3 75 2.6 SE 28 39 15 21 1014.2 - 0.0
19/07:00pm 18.3 14.8 13.4 73 2.8 SW 24 32 13 17 1015.9 - 0.0
19/06:30pm 18.7 14.4 13.1 70 3.2 SE 28 35 15 19 1014.2 - 0.0
19/06:00pm 19.3 15.3 13.0 67 3.6 SE 26 35 14 19 1014.1 1013.8 0.0
19/05:30pm 19.9 15.4 12.7 63 4.1 SE 28 41 15 22 1013.7 - 0.0
19/05:00pm 20.9 15.6 12.6 59 4.7 SE 32 39 17 21 1013.8 - 0.0
19/04:30pm 22.6 17.6 12.3 52 5.9 SE 30 43 16 23 1013.9 - 0.0
19/04:00pm 24.2 17.7 10.5 42 7.6 ESE 35 44 19 24 1013.5 - 0.0
19/03:30pm 25.6 18.7 9.0 35 9.1 SE 35 46 19 25 1013.3 - 0.0
19/03:00pm 26.6 20.1 9.0 33 9.7 ESE 33 43 18 23 1013.5 1013.2 0.0
19/02:30pm 26.8 21.3 9.2 33 9.7 ESE 28 37 15 20 1013.7 - 0.0
19/02:00pm 27.5 21.1 9.3 32 10.1 ESE 33 48 18 26 1013.8 - 0.0
19/01:30pm 27.2 20.0 9.1 32 10.0 ESE 37 46 20 25 1014.1 - 0.0
19/01:00pm 27.7 21.1 8.6 30 10.5 SE 33 43 18 23 1014.8 - 0.0

Other Formats:

Comma delimited format used in spreadsheet applications
http://www.bom.gov.au/fwo/IDW60801/IDW60801.95646.axf

JavaScript Object Notation format (JSON) in row-major order
http://www.bom.gov.au/fwo/IDW60801/IDW60801.95646.json